sensor_id;sensor_type;location;lat;lon;timestamp;temperature;humidity
9941;DHT22;5009;50.656;7.188;2022-07-23T00:00:00;19.90;99.90
9941;DHT22;5009;50.656;7.188;2022-07-23T00:02:25;19.90;99.90
9941;DHT22;5009;50.656;7.188;2022-07-23T00:04:51;19.90;99.90
9941;DHT22;5009;50.656;7.188;2022-07-23T00:07:17;20.00;99.90
9941;DHT22;5009;50.656;7.188;2022-07-23T00:09:42;20.00;99.90
9941;DHT22;5009;50.656;7.188;2022-07-23T00:12:08;20.00;99.90
9941;DHT22;5009;50.656;7.188;2022-07-23T00:14:33;20.00;99.90
9941;DHT22;5009;50.656;7.188;2022-07-23T00:16:59;19.90;99.90
9941;DHT22;5009;50.656;7.188;2022-07-23T00:19:24;19.90;99.90
9941;DHT22;5009;50.656;7.188;2022-07-23T00:21:50;19.90;99.90
9941;DHT22;5009;50.656;7.188;2022-07-23T00:24:16;20.00;99.90
9941;DHT22;5009;50.656;7.188;2022-07-23T00:26:41;20.00;99.90
9941;DHT22;5009;50.656;7.188;2022-07-23T00:29:07;20.00;99.90
9941;DHT22;5009;50.656;7.188;2022-07-23T00:31:32;20.10;99.90
9941;DHT22;5009;50.656;7.188;2022-07-23T00:33:58;20.10;99.90
9941;DHT22;5009;50.656;7.188;2022-07-23T00:36:26;19.90;99.90
9941;DHT22;5009;50.656;7.188;2022-07-23T00:38:52;19.80;99.90
9941;DHT22;5009;50.656;7.188;2022-07-23T00:41:18;19.70;99.90
9941;DHT22;5009;50.656;7.188;2022-07-23T00:43:43;19.70;99.90
9941;DHT22;5009;50.656;7.188;2022-07-23T00:46:09;19.70;99.90
9941;DHT22;5009;50.656;7.188;2022-07-23T00:48:34;19.70;99.90
9941;DHT22;5009;50.656;7.188;2022-07-23T00:51:00;19.70;99.90
9941;DHT22;5009;50.656;7.188;2022-07-23T00:53:25;19.80;99.90
9941;DHT22;5009;50.656;7.188;2022-07-23T00:55:51;19.80;99.90
9941;DHT22;5009;50.656;7.188;2022-07-23T00:58:18;19.80;99.90
9941;DHT22;5009;50.656;7.188;2022-07-23T01:00:44;19.80;99.90
9941;DHT22;5009;50.656;7.188;2022-07-23T01:03:10;19.90;99.90
9941;DHT22;5009;50.656;7.188;2022-07-23T01:05:35;19.80;99.90
9941;DHT22;5009;50.656;7.188;2022-07-23T01:08:01;19.80;99.90
9941;DHT22;5009;50.656;7.188;2022-07-23T01:10:27;19.80;99.90
9941;DHT22;5009;50.656;7.188;2022-07-23T01:13:04;19.80;99.90
9941;DHT22;5009;50.656;7.188;2022-07-23T01:15:30;19.70;99.90
9941;DHT22;5009;50.656;7.188;2022-07-23T01:17:55;19.60;99.90
9941;DHT22;5009;50.656;7.188;2022-07-23T01:20:22;19.60;99.90
9941;DHT22;5009;50.656;7.188;2022-07-23T01:22:47;19.60;99.90
9941;DHT22;5009;50.656;7.188;2022-07-23T01:25:13;19.60;99.90
9941;DHT22;5009;50.656;7.188;2022-07-23T01:27:39;19.70;99.90
9941;DHT22;5009;50.656;7.188;2022-07-23T01:30:07;19.60;99.90
9941;DHT22;5009;50.656;7.188;2022-07-23T01:32:33;19.60;99.90
9941;DHT22;5009;50.656;7.188;2022-07-23T01:34:58;19.60;99.90
9941;DHT22;5009;50.656;7.188;2022-07-23T01:37:24;19.60;99.90
9941;DHT22;5009;50.656;7.188;2022-07-23T01:39:49;19.50;99.90
9941;DHT22;5009;50.656;7.188;2022-07-23T01:42:15;19.50;99.90
9941;DHT22;5009;50.656;7.188;2022-07-23T01:44:40;19.50;99.90
9941;DHT22;5009;50.656;7.188;2022-07-23T01:47:06;19.40;99.90
9941;DHT22;5009;50.656;7.188;2022-07-23T01:49:31;19.40;99.90
9941;DHT22;5009;50.656;7.188;2022-07-23T01:51:57;19.30;99.90
9941;DHT22;5009;50.656;7.188;2022-07-23T01:54:31;19.30;99.90
9941;DHT22;5009;50.656;7.188;2022-07-23T01:56:57;19.30;99.90
9941;DHT22;5009;50.656;7.188;2022-07-23T01:59:24;19.30;99.90
9941;DHT22;5009;50.656;7.188;2022-07-23T02:01:50;19.40;99.90
9941;DHT22;5009;50.656;7.188;2022-07-23T02:04:25;19.40;99.90
9941;DHT22;5009;50.656;7.188;2022-07-23T02:06:52;19.40;99.90
9941;DHT22;5009;50.656;7.188;2022-07-23T02:09:18;19.50;99.90
9941;DHT22;5009;50.656;7.188;2022-07-23T02:11:43;19.50;99.90
9941;DHT22;5009;50.656;7.188;2022-07-23T02:14:09;19.50;99.90
9941;DHT22;5009;50.656;7.188;2022-07-23T02:16:35;19.50;99.90
9941;DHT22;5009;50.656;7.188;2022-07-23T02:19:00;19.50;99.90
9941;DHT22;5009;50.656;7.188;2022-07-23T02:21:26;19.50;99.90
9941;DHT22;5009;50.656;7.188;2022-07-23T02:23:52;19.40;99.90
9941;DHT22;5009;50.656;7.188;2022-07-23T02:26:17;19.40;99.90
9941;DHT22;5009;50.656;7.188;2022-07-23T02:28:43;19.40;99.90
9941;DHT22;5009;50.656;7.188;2022-07-23T02:31:08;19.40;99.90
9941;DHT22;5009;50.656;7.188;2022-07-23T02:33:34;19.40;99.90
9941;DHT22;5009;50.656;7.188;2022-07-23T02:35:59;19.30;99.90
9941;DHT22;5009;50.656;7.188;2022-07-23T02:38:25;19.20;99.90
9941;DHT22;5009;50.656;7.188;2022-07-23T02:40:51;19.20;99.90
9941;DHT22;5009;50.656;7.188;2022-07-23T02:43:17;19.10;99.90
9941;DHT22;5009;50.656;7.188;2022-07-23T02:45:42;19.10;99.90
9941;DHT22;5009;50.656;7.188;2022-07-23T02:48:08;19.10;99.90
9941;DHT22;5009;50.656;7.188;2022-07-23T02:50:33;19.10;99.90
9941;DHT22;5009;50.656;7.188;2022-07-23T02:52:59;19.10;99.90
9941;DHT22;5009;50.656;7.188;2022-07-23T02:55:25;19.10;99.90
9941;DHT22;5009;50.656;7.188;2022-07-23T02:57:50;19.10;99.90
9941;DHT22;5009;50.656;7.188;2022-07-23T03:00:16;19.10;99.90
9941;DHT22;5009;50.656;7.188;2022-07-23T03:02:42;19.10;99.90
9941;DHT22;5009;50.656;7.188;2022-07-23T03:05:08;19.10;99.90
9941;DHT22;5009;50.656;7.188;2022-07-23T03:07:33;19.10;99.90
9941;DHT22;5009;50.656;7.188;2022-07-23T03:09:59;19.10;99.90
9941;DHT22;5009;50.656;7.188;2022-07-23T03:12:25;19.00;99.90
9941;DHT22;5009;50.656;7.188;2022-07-23T03:14:50;19.00;99.90
9941;DHT22;5009;50.656;7.188;2022-07-23T03:17:17;19.00;99.90
9941;DHT22;5009;50.656;7.188;2022-07-23T03:19:43;19.00;99.90
9941;DHT22;5009;50.656;7.188;2022-07-23T03:22:08;19.00;99.90
9941;DHT22;5009;50.656;7.188;2022-07-23T03:24:34;19.00;99.90
9941;DHT22;5009;50.656;7.188;2022-07-23T03:27:18;18.90;99.90
9941;DHT22;5009;50.656;7.188;2022-07-23T03:29:43;18.80;99.90
9941;DHT22;5009;50.656;7.188;2022-07-23T03:32:09;18.80;99.90
9941;DHT22;5009;50.656;7.188;2022-07-23T03:34:35;18.80;99.90
9941;DHT22;5009;50.656;7.188;2022-07-23T03:37:01;18.70;99.90
9941;DHT22;5009;50.656;7.188;2022-07-23T03:39:26;18.70;99.90
9941;DHT22;5009;50.656;7.188;2022-07-23T03:41:52;18.60;99.90
9941;DHT22;5009;50.656;7.188;2022-07-23T03:44:18;18.60;99.90
9941;DHT22;5009;50.656;7.188;2022-07-23T03:46:43;18.50;99.90
9941;DHT22;5009;50.656;7.188;2022-07-23T03:49:09;18.40;99.90
9941;DHT22;5009;50.656;7.188;2022-07-23T03:51:34;18.20;99.90
9941;DHT22;5009;50.656;7.188;2022-07-23T03:54:00;18.20;99.90
9941;DHT22;5009;50.656;7.188;2022-07-23T03:56:25;18.30;99.90
9941;DHT22;5009;50.656;7.188;2022-07-23T03:58:51;18.30;99.90
9941;DHT22;5009;50.656;7.188;2022-07-23T04:01:17;18.20;99.90
9941;DHT22;5009;50.656;7.188;2022-07-23T04:03:42;18.20;99.90
9941;DHT22;5009;50.656;7.188;2022-07-23T04:06:08;18.10;99.90
9941;DHT22;5009;50.656;7.188;2022-07-23T04:08:34;18.10;99.90
9941;DHT22;5009;50.656;7.188;2022-07-23T04:10:59;18.20;99.90
9941;DHT22;5009;50.656;7.188;2022-07-23T04:13:25;18.20;99.90
9941;DHT22;5009;50.656;7.188;2022-07-23T04:15:50;18.20;99.90
9941;DHT22;5009;50.656;7.188;2022-07-23T04:18:17;18.20;99.90
9941;DHT22;5009;50.656;7.188;2022-07-23T04:20:43;18.30;99.90
9941;DHT22;5009;50.656;7.188;2022-07-23T04:23:09;18.40;99.90
9941;DHT22;5009;50.656;7.188;2022-07-23T04:25:35;18.40;99.90
9941;DHT22;5009;50.656;7.188;2022-07-23T04:28:01;18.50;99.90
9941;DHT22;5009;50.656;7.188;2022-07-23T04:30:27;18.60;99.90
9941;DHT22;5009;50.656;7.188;2022-07-23T04:32:53;18.60;99.90
9941;DHT22;5009;50.656;7.188;2022-07-23T04:35:19;18.70;99.90
9941;DHT22;5009;50.656;7.188;2022-07-23T04:37:44;18.70;99.90
9941;DHT22;5009;50.656;7.188;2022-07-23T04:40:11;18.80;99.90
9941;DHT22;5009;50.656;7.188;2022-07-23T04:42:37;19.00;99.90
9941;DHT22;5009;50.656;7.188;2022-07-23T04:45:03;19.10;99.90
9941;DHT22;5009;50.656;7.188;2022-07-23T04:47:29;19.30;99.90
9941;DHT22;5009;50.656;7.188;2022-07-23T04:49:56;19.40;99.90
9941;DHT22;5009;50.656;7.188;2022-07-23T04:52:22;19.50;99.90
9941;DHT22;5009;50.656;7.188;2022-07-23T04:54:47;19.60;99.90
9941;DHT22;5009;50.656;7.188;2022-07-23T04:57:13;19.60;99.90
9941;DHT22;5009;50.656;7.188;2022-07-23T04:59:39;19.80;99.90
9941;DHT22;5009;50.656;7.188;2022-07-23T05:02:04;20.00;99.90
9941;DHT22;5009;50.656;7.188;2022-07-23T05:04:30;20.10;99.90
9941;DHT22;5009;50.656;7.188;2022-07-23T05:06:57;20.30;99.90
9941;DHT22;5009;50.656;7.188;2022-07-23T05:09:22;20.50;99.90
9941;DHT22;5009;50.656;7.188;2022-07-23T05:11:48;20.70;99.90
9941;DHT22;5009;50.656;7.188;2022-07-23T05:14:14;21.00;99.90
9941;DHT22;5009;50.656;7.188;2022-07-23T05:16:39;21.60;99.90
9941;DHT22;5009;50.656;7.188;2022-07-23T05:19:05;22.30;99.90
9941;DHT22;5009;50.656;7.188;2022-07-23T05:21:31;22.80;99.80
9941;DHT22;5009;50.656;7.188;2022-07-23T05:23:57;23.30;98.60
9941;DHT22;5009;50.656;7.188;2022-07-23T05:26:22;23.70;97.80
9941;DHT22;5009;50.656;7.188;2022-07-23T05:28:48;24.00;97.30
9941;DHT22;5009;50.656;7.188;2022-07-23T05:31:13;24.20;96.50
9941;DHT22;5009;50.656;7.188;2022-07-23T05:33:39;24.30;96.00
9941;DHT22;5009;50.656;7.188;2022-07-23T05:36:05;24.20;95.80
9941;DHT22;5009;50.656;7.188;2022-07-23T05:38:31;24.10;95.90
9941;DHT22;5009;50.656;7.188;2022-07-23T05:40:57;24.00;96.10
9941;DHT22;5009;50.656;7.188;2022-07-23T05:43:23;23.90;96.40
9941;DHT22;5009;50.656;7.188;2022-07-23T05:45:49;24.20;96.10
9941;DHT22;5009;50.656;7.188;2022-07-23T05:48:14;24.40;95.70
9941;DHT22;5009;50.656;7.188;2022-07-23T05:50:40;24.30;95.40
9941;DHT22;5009;50.656;7.188;2022-07-23T05:53:05;23.90;95.60
9941;DHT22;5009;50.656;7.188;2022-07-23T05:55:31;23.80;96.20
9941;DHT22;5009;50.656;7.188;2022-07-23T05:57:57;23.50;96.60
9941;DHT22;5009;50.656;7.188;2022-07-23T06:00:24;23.30;97.30
9941;DHT22;5009;50.656;7.188;2022-07-23T06:02:50;23.10;97.90
9941;DHT22;5009;50.656;7.188;2022-07-23T06:05:16;23.10;98.20
9941;DHT22;5009;50.656;7.188;2022-07-23T06:07:42;22.80;98.70
9941;DHT22;5009;50.656;7.188;2022-07-23T06:10:08;23.00;98.90
9941;DHT22;5009;50.656;7.188;2022-07-23T06:12:34;23.30;98.60
9941;DHT22;5009;50.656;7.188;2022-07-23T06:14:59;23.20;98.30
9941;DHT22;5009;50.656;7.188;2022-07-23T06:17:25;23.50;97.90
9941;DHT22;5009;50.656;7.188;2022-07-23T06:19:51;23.90;97.50
9941;DHT22;5009;50.656;7.188;2022-07-23T06:22:16;24.60;96.10
9941;DHT22;5009;50.656;7.188;2022-07-23T06:24:42;25.30;95.30
9941;DHT22;5009;50.656;7.188;2022-07-23T06:27:07;26.00;93.70
9941;DHT22;5009;50.656;7.188;2022-07-23T06:29:33;26.70;92.60
9941;DHT22;5009;50.656;7.188;2022-07-23T06:31:59;27.90;91.40
9941;DHT22;5009;50.656;7.188;2022-07-23T06:34:24;29.70;87.70
9941;DHT22;5009;50.656;7.188;2022-07-23T06:36:50;30.70;81.50
9941;DHT22;5009;50.656;7.188;2022-07-23T06:39:15;30.70;79.30
9941;DHT22;5009;50.656;7.188;2022-07-23T06:41:41;30.20;79.40
9941;DHT22;5009;50.656;7.188;2022-07-23T06:44:07;30.30;80.00
9941;DHT22;5009;50.656;7.188;2022-07-23T06:46:33;31.40;76.80
9941;DHT22;5009;50.656;7.188;2022-07-23T06:48:59;32.40;73.40
9941;DHT22;5009;50.656;7.188;2022-07-23T06:51:24;33.40;70.30
9941;DHT22;5009;50.656;7.188;2022-07-23T06:53:50;33.90;66.10
9941;DHT22;5009;50.656;7.188;2022-07-23T06:56:16;33.80;63.50
9941;DHT22;5009;50.656;7.188;2022-07-23T06:58:41;34.40;61.20
9941;DHT22;5009;50.656;7.188;2022-07-23T07:01:07;35.10;58.70
9941;DHT22;5009;50.656;7.188;2022-07-23T07:03:32;35.20;57.70
9941;DHT22;5009;50.656;7.188;2022-07-23T07:05:58;34.80;56.90
9941;DHT22;5009;50.656;7.188;2022-07-23T07:08:24;35.40;56.00
9941;DHT22;5009;50.656;7.188;2022-07-23T07:10:49;35.60;55.10
9941;DHT22;5009;50.656;7.188;2022-07-23T07:13:15;36.40;54.40
9941;DHT22;5009;50.656;7.188;2022-07-23T07:15:41;36.90;53.30
9941;DHT22;5009;50.656;7.188;2022-07-23T07:18:07;37.90;51.70
9941;DHT22;5009;50.656;7.188;2022-07-23T07:20:32;38.50;50.60
9941;DHT22;5009;50.656;7.188;2022-07-23T07:22:58;39.10;49.90
9941;DHT22;5009;50.656;7.188;2022-07-23T07:25:24;39.10;48.70
9941;DHT22;5009;50.656;7.188;2022-07-23T07:27:49;39.40;48.10
9941;DHT22;5009;50.656;7.188;2022-07-23T07:30:15;39.60;47.60
9941;DHT22;5009;50.656;7.188;2022-07-23T07:32:41;39.90;46.60
9941;DHT22;5009;50.656;7.188;2022-07-23T07:35:07;39.80;46.40
9941;DHT22;5009;50.656;7.188;2022-07-23T07:37:33;40.10;45.40
9941;DHT22;5009;50.656;7.188;2022-07-23T07:39:59;40.40;45.10
9941;DHT22;5009;50.656;7.188;2022-07-23T07:42:24;40.70;44.50
9941;DHT22;5009;50.656;7.188;2022-07-23T07:44:50;41.00;43.90
9941;DHT22;5009;50.656;7.188;2022-07-23T07:47:15;41.10;42.80
9941;DHT22;5009;50.656;7.188;2022-07-23T07:49:42;41.20;41.70
9941;DHT22;5009;50.656;7.188;2022-07-23T07:52:08;41.20;41.20
9941;DHT22;5009;50.656;7.188;2022-07-23T07:54:33;41.50;41.00
9941;DHT22;5009;50.656;7.188;2022-07-23T07:56:59;41.50;40.50
9941;DHT22;5009;50.656;7.188;2022-07-23T07:59:25;41.70;40.60
9941;DHT22;5009;50.656;7.188;2022-07-23T08:01:50;41.20;40.30
9941;DHT22;5009;50.656;7.188;2022-07-23T08:04:16;40.60;40.20
9941;DHT22;5009;50.656;7.188;2022-07-23T08:06:42;39.70;40.00
9941;DHT22;5009;50.656;7.188;2022-07-23T08:09:07;38.80;40.40
9941;DHT22;5009;50.656;7.188;2022-07-23T08:11:33;37.00;40.70
9941;DHT22;5009;50.656;7.188;2022-07-23T08:13:58;36.20;41.30
9941;DHT22;5009;50.656;7.188;2022-07-23T08:16:24;34.90;42.10
9941;DHT22;5009;50.656;7.188;2022-07-23T08:18:49;34.60;42.80
9941;DHT22;5009;50.656;7.188;2022-07-23T08:21:15;34.10;43.30
9941;DHT22;5009;50.656;7.188;2022-07-23T08:23:41;33.70;43.30
9941;DHT22;5009;50.656;7.188;2022-07-23T08:26:06;33.30;43.60
9941;DHT22;5009;50.656;7.188;2022-07-23T08:28:32;32.70;44.00
9941;DHT22;5009;50.656;7.188;2022-07-23T08:30:59;32.50;44.70
9941;DHT22;5009;50.656;7.188;2022-07-23T08:33:25;32.50;44.90
9941;DHT22;5009;50.656;7.188;2022-07-23T08:35:51;32.00;45.00
9941;DHT22;5009;50.656;7.188;2022-07-23T08:38:20;31.90;45.60
9941;DHT22;5009;50.656;7.188;2022-07-23T08:40:52;32.10;45.50
9941;DHT22;5009;50.656;7.188;2022-07-23T08:43:19;32.00;45.50
9941;DHT22;5009;50.656;7.188;2022-07-23T08:45:48;31.80;45.60
9941;DHT22;5009;50.656;7.188;2022-07-23T08:48:17;31.70;45.70
9941;DHT22;5009;50.656;7.188;2022-07-23T08:50:51;31.60;45.90
9941;DHT22;5009;50.656;7.188;2022-07-23T08:53:18;31.60;46.20
9941;DHT22;5009;50.656;7.188;2022-07-23T08:55:48;31.30;45.90
9941;DHT22;5009;50.656;7.188;2022-07-23T08:58:14;31.30;46.30
9941;DHT22;5009;50.656;7.188;2022-07-23T09:00:41;30.90;46.40
9941;DHT22;5009;50.656;7.188;2022-07-23T09:03:07;30.60;46.90
9941;DHT22;5009;50.656;7.188;2022-07-23T09:05:33;30.50;47.10
9941;DHT22;5009;50.656;7.188;2022-07-23T09:08:09;30.60;46.80
9941;DHT22;5009;50.656;7.188;2022-07-23T09:10:46;30.70;46.80
9941;DHT22;5009;50.656;7.188;2022-07-23T09:13:25;30.80;47.10
9941;DHT22;5009;50.656;7.188;2022-07-23T09:15:52;30.80;47.00
9941;DHT22;5009;50.656;7.188;2022-07-23T09:18:18;31.00;47.20
9941;DHT22;5009;50.656;7.188;2022-07-23T09:20:44;30.70;47.10
9941;DHT22;5009;50.656;7.188;2022-07-23T09:23:10;30.40;47.40
9941;DHT22;5009;50.656;7.188;2022-07-23T09:25:35;30.00;47.70
9941;DHT22;5009;50.656;7.188;2022-07-23T09:28:01;29.40;48.50
9941;DHT22;5009;50.656;7.188;2022-07-23T09:30:32;29.20;48.70
9941;DHT22;5009;50.656;7.188;2022-07-23T09:33:11;29.00;48.80
9941;DHT22;5009;50.656;7.188;2022-07-23T09:35:53;29.00;49.40
9941;DHT22;5009;50.656;7.188;2022-07-23T09:38:20;28.70;49.30
9941;DHT22;5009;50.656;7.188;2022-07-23T09:40:47;28.50;50.40
9941;DHT22;5009;50.656;7.188;2022-07-23T09:43:30;28.40;50.00
9941;DHT22;5009;50.656;7.188;2022-07-23T09:48:47;28.30;51.40
9941;DHT22;5009;50.656;7.188;2022-07-23T09:51:13;28.30;51.10
9941;DHT22;5009;50.656;7.188;2022-07-23T09:53:48;27.80;51.70
9941;DHT22;5009;50.656;7.188;2022-07-23T09:56:14;27.90;52.90
9941;DHT22;5009;50.656;7.188;2022-07-23T09:58:41;27.90;51.50
9941;DHT22;5009;50.656;7.188;2022-07-23T10:01:13;28.00;52.00
9941;DHT22;5009;50.656;7.188;2022-07-23T10:03:40;28.10;51.70
9941;DHT22;5009;50.656;7.188;2022-07-23T10:06:11;27.80;52.40
9941;DHT22;5009;50.656;7.188;2022-07-23T10:08:40;27.70;52.30
9941;DHT22;5009;50.656;7.188;2022-07-23T10:11:08;27.60;52.10
9941;DHT22;5009;50.656;7.188;2022-07-23T10:13:35;27.40;52.40
9941;DHT22;5009;50.656;7.188;2022-07-23T10:16:27;27.30;52.50
9941;DHT22;5009;50.656;7.188;2022-07-23T10:18:53;27.40;53.00
9941;DHT22;5009;50.656;7.188;2022-07-23T10:21:42;27.50;52.80
9941;DHT22;5009;50.656;7.188;2022-07-23T10:24:15;27.30;52.40
9941;DHT22;5009;50.656;7.188;2022-07-23T10:27:18;27.20;52.30
9941;DHT22;5009;50.656;7.188;2022-07-23T10:30:04;27.20;52.70
9941;DHT22;5009;50.656;7.188;2022-07-23T10:35:59;26.90;53.00
9941;DHT22;5009;50.656;7.188;2022-07-23T10:38:30;26.80;53.60
9941;DHT22;5009;50.656;7.188;2022-07-23T10:43:24;26.60;53.70
9941;DHT22;5009;50.656;7.188;2022-07-23T10:45:51;26.70;54.10
9941;DHT22;5009;50.656;7.188;2022-07-23T10:48:24;26.60;53.70
9941;DHT22;5009;50.656;7.188;2022-07-23T10:54:07;26.60;53.70
9941;DHT22;5009;50.656;7.188;2022-07-23T10:56:50;26.50;53.90
9941;DHT22;5009;50.656;7.188;2022-07-23T10:59:29;26.40;54.10
9941;DHT22;5009;50.656;7.188;2022-07-23T11:02:20;26.40;54.50
9941;DHT22;5009;50.656;7.188;2022-07-23T11:04:53;26.30;54.70
9941;DHT22;5009;50.656;7.188;2022-07-23T11:07:19;26.20;54.80
9941;DHT22;5009;50.656;7.188;2022-07-23T11:09:45;26.20;55.20
9941;DHT22;5009;50.656;7.188;2022-07-23T11:15:05;26.40;55.40
9941;DHT22;5009;50.656;7.188;2022-07-23T11:17:34;26.40;55.00
9941;DHT22;5009;50.656;7.188;2022-07-23T11:22:38;26.40;53.40
9941;DHT22;5009;50.656;7.188;2022-07-23T11:25:04;26.40;53.40
9941;DHT22;5009;50.656;7.188;2022-07-23T11:27:41;26.50;53.30
9941;DHT22;5009;50.656;7.188;2022-07-23T11:30:09;26.40;52.80
9941;DHT22;5009;50.656;7.188;2022-07-23T11:32:37;26.30;53.10
9941;DHT22;5009;50.656;7.188;2022-07-23T11:35:27;26.30;52.90
9941;DHT22;5009;50.656;7.188;2022-07-23T11:37:56;26.30;53.10
9941;DHT22;5009;50.656;7.188;2022-07-23T11:40:27;26.30;52.60
9941;DHT22;5009;50.656;7.188;2022-07-23T11:42:54;26.20;52.20
9941;DHT22;5009;50.656;7.188;2022-07-23T11:45:21;26.20;52.30
9941;DHT22;5009;50.656;7.188;2022-07-23T11:47:46;26.10;52.10
9941;DHT22;5009;50.656;7.188;2022-07-23T11:50:12;26.00;51.90
9941;DHT22;5009;50.656;7.188;2022-07-23T11:52:39;26.00;51.60
9941;DHT22;5009;50.656;7.188;2022-07-23T11:55:09;26.00;51.70
9941;DHT22;5009;50.656;7.188;2022-07-23T11:57:40;25.90;52.50
9941;DHT22;5009;50.656;7.188;2022-07-23T12:00:12;26.00;53.80
9941;DHT22;5009;50.656;7.188;2022-07-23T12:02:39;26.10;53.70
9941;DHT22;5009;50.656;7.188;2022-07-23T12:05:06;26.20;53.50
9941;DHT22;5009;50.656;7.188;2022-07-23T12:07:52;26.00;52.10
9941;DHT22;5009;50.656;7.188;2022-07-23T12:10:26;26.10;52.50
9941;DHT22;5009;50.656;7.188;2022-07-23T12:13:03;26.10;53.30
9941;DHT22;5009;50.656;7.188;2022-07-23T12:15:41;26.10;53.40
9941;DHT22;5009;50.656;7.188;2022-07-23T12:18:10;26.10;53.50
9941;DHT22;5009;50.656;7.188;2022-07-23T12:20:41;26.00;53.40
9941;DHT22;5009;50.656;7.188;2022-07-23T12:23:08;25.90;54.00
9941;DHT22;5009;50.656;7.188;2022-07-23T12:25:37;25.90;54.30
9941;DHT22;5009;50.656;7.188;2022-07-23T12:28:27;25.90;54.90
9941;DHT22;5009;50.656;7.188;2022-07-23T12:30:54;25.80;54.60
9941;DHT22;5009;50.656;7.188;2022-07-23T12:33:26;25.90;55.10
9941;DHT22;5009;50.656;7.188;2022-07-23T12:35:54;25.80;54.80
9941;DHT22;5009;50.656;7.188;2022-07-23T12:38:22;25.80;55.50
9941;DHT22;5009;50.656;7.188;2022-07-23T12:40:56;25.90;54.80
9941;DHT22;5009;50.656;7.188;2022-07-23T12:43:28;25.80;55.40
9941;DHT22;5009;50.656;7.188;2022-07-23T12:46:04;26.00;55.70
9941;DHT22;5009;50.656;7.188;2022-07-23T12:51:06;26.20;55.60
9941;DHT22;5009;50.656;7.188;2022-07-23T12:53:33;26.10;55.10
9941;DHT22;5009;50.656;7.188;2022-07-23T12:56:14;26.20;55.10
9941;DHT22;5009;50.656;7.188;2022-07-23T12:58:52;26.30;55.70
9941;DHT22;5009;50.656;7.188;2022-07-23T13:06:25;26.20;55.30
9941;DHT22;5009;50.656;7.188;2022-07-23T13:08:50;26.20;55.40
9941;DHT22;5009;50.656;7.188;2022-07-23T13:11:16;26.30;56.10
9941;DHT22;5009;50.656;7.188;2022-07-23T13:13:42;26.30;55.70
9941;DHT22;5009;50.656;7.188;2022-07-23T13:16:07;26.30;55.20
9941;DHT22;5009;50.656;7.188;2022-07-23T13:18:33;26.30;55.20
9941;DHT22;5009;50.656;7.188;2022-07-23T13:21:00;26.40;55.50
9941;DHT22;5009;50.656;7.188;2022-07-23T13:23:26;26.30;54.80
9941;DHT22;5009;50.656;7.188;2022-07-23T13:25:52;26.30;54.20
9941;DHT22;5009;50.656;7.188;2022-07-23T13:28:20;26.40;54.60
9941;DHT22;5009;50.656;7.188;2022-07-23T13:30:47;26.50;54.00
9941;DHT22;5009;50.656;7.188;2022-07-23T13:33:15;26.40;53.50
9941;DHT22;5009;50.656;7.188;2022-07-23T13:35:41;26.40;53.80
9941;DHT22;5009;50.656;7.188;2022-07-23T13:38:07;26.50;54.00
9941;DHT22;5009;50.656;7.188;2022-07-23T13:40:34;26.50;54.00
9941;DHT22;5009;50.656;7.188;2022-07-23T13:43:00;26.50;53.40
9941;DHT22;5009;50.656;7.188;2022-07-23T13:45:26;26.50;54.00
9941;DHT22;5009;50.656;7.188;2022-07-23T13:47:52;26.60;54.00
9941;DHT22;5009;50.656;7.188;2022-07-23T13:50:17;26.70;54.50
9941;DHT22;5009;50.656;7.188;2022-07-23T13:52:43;26.70;54.10
9941;DHT22;5009;50.656;7.188;2022-07-23T13:55:09;26.70;53.80
9941;DHT22;5009;50.656;7.188;2022-07-23T13:57:35;26.80;53.40
9941;DHT22;5009;50.656;7.188;2022-07-23T14:00:00;26.80;53.20
9941;DHT22;5009;50.656;7.188;2022-07-23T14:02:26;26.80;53.50
9941;DHT22;5009;50.656;7.188;2022-07-23T14:04:52;26.70;52.90
9941;DHT22;5009;50.656;7.188;2022-07-23T14:07:18;26.80;52.70
9941;DHT22;5009;50.656;7.188;2022-07-23T14:09:44;26.70;52.50
9941;DHT22;5009;50.656;7.188;2022-07-23T14:12:10;26.70;53.10
9941;DHT22;5009;50.656;7.188;2022-07-23T14:14:35;26.60;53.10
9941;DHT22;5009;50.656;7.188;2022-07-23T14:17:01;26.60;53.50
9941;DHT22;5009;50.656;7.188;2022-07-23T14:19:27;26.70;53.80
9941;DHT22;5009;50.656;7.188;2022-07-23T14:21:52;26.70;53.90
9941;DHT22;5009;50.656;7.188;2022-07-23T14:24:18;26.80;53.40
9941;DHT22;5009;50.656;7.188;2022-07-23T14:26:44;26.70;53.40
9941;DHT22;5009;50.656;7.188;2022-07-23T14:29:09;26.70;53.30
9941;DHT22;5009;50.656;7.188;2022-07-23T14:31:35;26.50;52.80
9941;DHT22;5009;50.656;7.188;2022-07-23T14:34:01;26.40;53.00
9941;DHT22;5009;50.656;7.188;2022-07-23T14:36:27;26.40;53.30
9941;DHT22;5009;50.656;7.188;2022-07-23T14:38:52;26.30;53.30
9941;DHT22;5009;50.656;7.188;2022-07-23T14:41:18;26.30;53.30
9941;DHT22;5009;50.656;7.188;2022-07-23T14:43:43;26.30;53.10
9941;DHT22;5009;50.656;7.188;2022-07-23T14:46:10;26.30;53.50
9941;DHT22;5009;50.656;7.188;2022-07-23T14:48:37;26.30;53.50
9941;DHT22;5009;50.656;7.188;2022-07-23T14:51:03;26.30;53.40
9941;DHT22;5009;50.656;7.188;2022-07-23T14:53:29;26.20;53.00
9941;DHT22;5009;50.656;7.188;2022-07-23T14:55:55;26.20;53.30
9941;DHT22;5009;50.656;7.188;2022-07-23T14:58:22;26.20;53.80
9941;DHT22;5009;50.656;7.188;2022-07-23T15:00:48;26.30;53.80
9941;DHT22;5009;50.656;7.188;2022-07-23T15:03:13;26.30;54.00
9941;DHT22;5009;50.656;7.188;2022-07-23T15:05:39;26.20;53.60
9941;DHT22;5009;50.656;7.188;2022-07-23T15:08:05;26.30;54.00
9941;DHT22;5009;50.656;7.188;2022-07-23T15:10:30;26.30;53.90
9941;DHT22;5009;50.656;7.188;2022-07-23T15:12:56;26.40;54.00
9941;DHT22;5009;50.656;7.188;2022-07-23T15:15:21;26.30;53.70
9941;DHT22;5009;50.656;7.188;2022-07-23T15:17:47;26.30;54.00
9941;DHT22;5009;50.656;7.188;2022-07-23T15:20:13;26.30;53.40
9941;DHT22;5009;50.656;7.188;2022-07-23T15:22:38;26.40;53.50
9941;DHT22;5009;50.656;7.188;2022-07-23T15:25:05;26.50;54.00
9941;DHT22;5009;50.656;7.188;2022-07-23T15:27:30;26.60;53.90
9941;DHT22;5009;50.656;7.188;2022-07-23T15:29:56;26.60;53.80
9941;DHT22;5009;50.656;7.188;2022-07-23T15:32:22;26.60;53.30
9941;DHT22;5009;50.656;7.188;2022-07-23T15:34:50;26.50;53.10
9941;DHT22;5009;50.656;7.188;2022-07-23T15:37:15;26.50;53.10
9941;DHT22;5009;50.656;7.188;2022-07-23T15:39:41;26.40;53.10
9941;DHT22;5009;50.656;7.188;2022-07-23T15:42:07;26.40;53.20
9941;DHT22;5009;50.656;7.188;2022-07-23T15:44:32;26.30;53.50
9941;DHT22;5009;50.656;7.188;2022-07-23T15:46:58;26.30;53.60
9941;DHT22;5009;50.656;7.188;2022-07-23T15:49:23;26.30;53.50
9941;DHT22;5009;50.656;7.188;2022-07-23T15:51:49;26.30;53.50
9941;DHT22;5009;50.656;7.188;2022-07-23T15:54:14;26.30;53.50
9941;DHT22;5009;50.656;7.188;2022-07-23T15:56:40;26.40;53.80
9941;DHT22;5009;50.656;7.188;2022-07-23T15:59:08;26.40;54.00
9941;DHT22;5009;50.656;7.188;2022-07-23T16:01:34;26.50;53.70
9941;DHT22;5009;50.656;7.188;2022-07-23T16:03:59;26.50;53.50
9941;DHT22;5009;50.656;7.188;2022-07-23T16:06:26;26.60;53.60
9941;DHT22;5009;50.656;7.188;2022-07-23T16:08:52;26.60;53.80
9941;DHT22;5009;50.656;7.188;2022-07-23T16:11:17;26.60;53.60
9941;DHT22;5009;50.656;7.188;2022-07-23T16:13:43;26.50;53.40
9941;DHT22;5009;50.656;7.188;2022-07-23T16:16:10;26.40;53.40
9941;DHT22;5009;50.656;7.188;2022-07-23T16:18:36;26.40;53.30
9941;DHT22;5009;50.656;7.188;2022-07-23T16:21:02;26.40;53.30
9941;DHT22;5009;50.656;7.188;2022-07-23T16:23:28;26.50;53.50
9941;DHT22;5009;50.656;7.188;2022-07-23T16:25:54;26.50;53.90